Time;durP1;ratioP1;P1;durP2;ratioP2;P2;SDS_P1;SDS_P2;PMS_P1;PMS_P2;Temp;Humidity;BMP_temperature;BMP_pressure;BME280_temperature;BME280_humidity;BME280_pressure;Samples;Min_cycle;Max_cycle;Signal;HPM_P1;HPM_P2
2024/01/18 00:00:51;;;;;;;;;;;1.40;99.90;;;;;;7331162;19;109209;-64
2024/01/18 00:03:21;;;;;;;;;;;1.30;99.90;;;;;;7331859;19;109366;-63
2024/01/18 00:05:48;;;;;;;;;;;1.30;99.90;;;;;;7336980;19;109963;-64
2024/01/18 00:08:15;;;;;;;;;;;1.30;99.90;;;;;;7333968;19;109691;-65
2024/01/18 00:10:42;;;;;;;;;;;1.30;99.90;;;;;;7333747;19;109772;-65
2024/01/18 00:13:10;;;;;;;;;;;1.30;99.90;;;;;;7337671;19;109169;-64
2024/01/18 00:15:37;;;;;;;;;;;1.30;99.90;;;;;;7330902;19;109450;-66
2024/01/18 00:18:05;;;;;;;;;;;1.30;99.90;;;;;;7332059;19;109512;-64
2024/01/18 00:20:32;;;;;;;;;;;1.30;99.90;;;;;;7333406;19;109117;-64
2024/01/18 00:22:59;;;;;;;;;;;1.30;99.90;;;;;;7336283;19;108464;-64
2024/01/18 00:25:26;;;;;;;;;;;1.30;99.90;;;;;;7339770;19;108750;-64
2024/01/18 00:27:54;;;;;;;;;;;1.20;99.90;;;;;;7337595;19;109704;-63
2024/01/18 00:30:21;;;;;;;;;;;1.30;99.90;;;;;;7340979;19;109722;-63
2024/01/18 00:32:49;;;;;;;;;;;1.30;99.90;;;;;;7337932;19;109083;-63
2024/01/18 00:35:16;;;;;;;;;;;1.20;99.90;;;;;;7345587;19;109281;-64
2024/01/18 00:37:43;;;;;;;;;;;1.20;99.90;;;;;;7338718;19;112321;-64
2024/01/18 00:40:12;;;;;;;;;;;1.20;99.90;;;;;;7338943;19;109685;-64
2024/01/18 00:42:39;;;;;;;;;;;1.20;99.90;;;;;;7340231;19;108410;-64
2024/01/18 00:45:06;;;;;;;;;;;1.20;99.90;;;;;;7338762;19;110293;-64
2024/01/18 00:47:33;;;;;;;;;;;1.20;99.90;;;;;;7337744;19;110116;-64
2024/01/18 00:50:00;;;;;;;;;;;1.30;99.90;;;;;;7341469;19;108453;-64
2024/01/18 00:52:27;;;;;;;;;;;1.20;99.90;;;;;;7337778;19;111689;-65
2024/01/18 00:54:54;;;;;;;;;;;1.20;99.90;;;;;;7339712;19;109086;-66
2024/01/18 00:57:21;;;;;;;;;;;1.20;99.90;;;;;;7344177;19;109141;-65
2024/01/18 00:59:48;;;;;;;;;;;1.20;99.90;;;;;;7335032;19;109574;-67
2024/01/18 01:02:15;;;;;;;;;;;1.20;99.90;;;;;;7338528;19;110670;-65
2024/01/18 01:04:42;;;;;;;;;;;1.20;99.90;;;;;;7337991;19;108640;-65
2024/01/18 01:07:09;;;;;;;;;;;1.20;99.90;;;;;;7340201;19;109381;-65
2024/01/18 01:09:37;;;;;;;;;;;1.20;99.90;;;;;;7337273;19;108843;-65
2024/01/18 01:12:04;;;;;;;;;;;1.20;99.90;;;;;;7340281;19;109385;-64
2024/01/18 01:14:31;;;;;;;;;;;1.20;99.90;;;;;;7336178;19;109771;-65
2024/01/18 01:16:58;;;;;;;;;;;1.10;99.90;;;;;;7340248;19;109670;-65
2024/01/18 01:19:25;;;;;;;;;;;1.20;99.90;;;;;;7341348;19;109016;-68
2024/01/18 01:21:53;;;;;;;;;;;1.20;99.90;;;;;;7336449;19;109031;-67
2024/01/18 01:24:20;;;;;;;;;;;1.20;99.90;;;;;;7337403;19;109593;-64
2024/01/18 01:26:47;;;;;;;;;;;1.20;99.90;;;;;;7333333;19;109128;-65
2024/01/18 01:29:15;;;;;;;;;;;1.20;99.90;;;;;;7338345;19;109143;-63
2024/01/18 01:31:43;;;;;;;;;;;1.20;99.90;;;;;;7336901;19;109010;-63
2024/01/18 01:34:10;;;;;;;;;;;1.20;99.90;;;;;;7336359;19;109437;-63
2024/01/18 01:36:40;;;;;;;;;;;1.20;99.90;;;;;;7335418;19;109000;-64
2024/01/18 01:39:12;;;;;;;;;;;1.20;99.90;;;;;;7338208;19;108577;-64
2024/01/18 01:41:39;;;;;;;;;;;1.20;99.90;;;;;;7342142;19;113830;-65
2024/01/18 01:44:07;;;;;;;;;;;1.20;99.90;;;;;;7338123;19;109034;-64
2024/01/18 01:46:34;;;;;;;;;;;1.20;99.90;;;;;;7337921;19;109669;-64
2024/01/18 01:49:04;;;;;;;;;;;1.20;99.90;;;;;;7339686;19;108538;-64
2024/01/18 01:51:38;;;;;;;;;;;1.20;99.90;;;;;;7337545;19;108421;-64
2024/01/18 01:54:06;;;;;;;;;;;1.20;99.90;;;;;;7336972;19;110055;-65
2024/01/18 01:56:34;;;;;;;;;;;1.20;99.90;;;;;;7337025;19;111443;-63
2024/01/18 01:59:02;;;;;;;;;;;1.10;99.90;;;;;;7338540;19;108761;-65
2024/01/18 02:01:29;;;;;;;;;;;1.10;99.90;;;;;;7335934;19;110161;-65
2024/01/18 02:03:56;;;;;;;;;;;1.10;99.90;;;;;;7345243;19;108938;-65
2024/01/18 02:06:23;;;;;;;;;;;1.00;99.90;;;;;;7338196;19;112557;-65
2024/01/18 02:08:50;;;;;;;;;;;1.00;99.90;;;;;;7336829;19;108683;-65
2024/01/18 02:11:18;;;;;;;;;;;1.10;99.90;;;;;;7334674;19;108666;-65
2024/01/18 02:13:45;;;;;;;;;;;1.10;99.90;;;;;;7338197;19;109106;-66
2024/01/18 02:16:12;;;;;;;;;;;1.10;99.90;;;;;;7335382;19;109527;-63
2024/01/18 02:18:39;;;;;;;;;;;1.10;99.90;;;;;;7337300;19;109124;-65
2024/01/18 02:21:08;;;;;;;;;;;1.10;99.90;;;;;;7334532;19;109193;-65
2024/01/18 02:23:36;;;;;;;;;;;1.10;99.90;;;;;;7338634;19;109045;-65
2024/01/18 02:26:04;;;;;;;;;;;1.10;99.90;;;;;;7332203;19;110128;-64
2024/01/18 02:28:31;;;;;;;;;;;1.10;99.90;;;;;;7338086;19;108388;-65
2024/01/18 02:30:58;;;;;;;;;;;1.10;99.90;;;;;;7336183;19;111450;-65
2024/01/18 02:33:25;;;;;;;;;;;1.10;99.90;;;;;;7331450;19;110366;-68
2024/01/18 02:35:52;;;;;;;;;;;1.10;99.90;;;;;;7338704;19;108271;-65
2024/01/18 02:38:20;;;;;;;;;;;1.10;99.90;;;;;;7337394;19;109379;-65
2024/01/18 02:40:47;;;;;;;;;;;1.10;99.90;;;;;;7338742;19;109273;-65
2024/01/18 02:43:14;;;;;;;;;;;1.10;99.90;;;;;;7334791;19;108995;-66
2024/01/18 02:45:41;;;;;;;;;;;1.00;99.90;;;;;;7336474;19;109082;-65
2024/01/18 02:48:09;;;;;;;;;;;1.00;99.90;;;;;;7336505;19;109174;-69
2024/01/18 02:50:39;;;;;;;;;;;1.00;99.90;;;;;;7336066;19;109211;-65
2024/01/18 02:53:06;;;;;;;;;;;1.00;99.90;;;;;;7335851;19;109702;-64
2024/01/18 02:55:33;;;;;;;;;;;1.00;99.90;;;;;;7335902;19;112483;-65
2024/01/18 02:58:01;;;;;;;;;;;1.00;99.90;;;;;;7333211;19;109151;-66
2024/01/18 03:00:28;;;;;;;;;;;0.90;99.90;;;;;;7334630;19;109550;-65
2024/01/18 03:02:55;;;;;;;;;;;0.90;99.90;;;;;;7336680;19;108729;-66
2024/01/18 03:05:22;;;;;;;;;;;0.90;99.90;;;;;;7337745;19;109304;-65
2024/01/18 03:07:50;;;;;;;;;;;0.90;99.90;;;;;;7340856;19;110421;-64
2024/01/18 03:10:17;;;;;;;;;;;0.90;99.90;;;;;;7336029;19;109510;-64
2024/01/18 03:12:44;;;;;;;;;;;0.80;99.90;;;;;;7332536;19;110228;-64
2024/01/18 03:15:11;;;;;;;;;;;0.80;99.90;;;;;;7337635;19;110444;-65
2024/01/18 03:17:38;;;;;;;;;;;0.80;99.90;;;;;;7336166;19;109270;-64
2024/01/18 03:20:07;;;;;;;;;;;0.70;99.90;;;;;;7333844;19;109131;-64
2024/01/18 03:22:34;;;;;;;;;;;0.70;99.90;;;;;;7336526;19;108996;-65
2024/01/18 03:25:02;;;;;;;;;;;0.60;99.90;;;;;;7333488;19;108858;-65
2024/01/18 03:27:29;;;;;;;;;;;0.50;99.90;;;;;;7332503;19;109776;-63
2024/01/18 03:29:57;;;;;;;;;;;0.60;99.90;;;;;;7340340;19;108717;-66
2024/01/18 03:32:24;;;;;;;;;;;0.50;99.90;;;;;;7336138;19;110570;-65
2024/01/18 03:34:51;;;;;;;;;;;0.60;99.90;;;;;;7337330;19;109141;-65
2024/01/18 03:37:18;;;;;;;;;;;0.60;99.90;;;;;;7333255;19;109556;-64
2024/01/18 03:39:45;;;;;;;;;;;0.60;99.90;;;;;;7333522;19;109158;-65
2024/01/18 03:42:13;;;;;;;;;;;0.60;99.90;;;;;;7334779;19;109103;-63
2024/01/18 03:44:40;;;;;;;;;;;0.60;99.90;;;;;;7334482;19;109235;-65
2024/01/18 03:47:07;;;;;;;;;;;0.50;99.90;;;;;;7334622;19;110191;-65
2024/01/18 03:49:35;;;;;;;;;;;0.50;99.90;;;;;;7335716;19;109931;-64
2024/01/18 03:52:02;;;;;;;;;;;0.50;99.90;;;;;;7340354;19;109312;-65
2024/01/18 03:54:29;;;;;;;;;;;0.50;99.90;;;;;;7335622;19;108953;-67
2024/01/18 03:56:56;;;;;;;;;;;0.50;99.90;;;;;;7331478;19;108536;-65
2024/01/18 03:59:23;;;;;;;;;;;0.50;99.90;;;;;;7333094;19;109829;-65
2024/01/18 04:01:51;;;;;;;;;;;0.60;99.90;;;;;;7329470;19;109171;-65
2024/01/18 04:04:18;;;;;;;;;;;0.50;99.90;;;;;;7334069;19;109124;-65
2024/01/18 04:06:45;;;;;;;;;;;0.50;99.90;;;;;;7331964;19;110996;-65
2024/01/18 04:09:12;;;;;;;;;;;0.40;99.90;;;;;;7336542;19;110819;-66
2024/01/18 04:11:39;;;;;;;;;;;0.40;99.90;;;;;;7332452;19;109064;-65
2024/01/18 04:14:06;;;;;;;;;;;0.40;99.90;;;;;;7338504;19;110204;-65
2024/01/18 04:16:34;;;;;;;;;;;0.40;99.90;;;;;;7332977;19;108867;-65
2024/01/18 04:19:01;;;;;;;;;;;0.40;99.90;;;;;;7337351;19;110096;-66
2024/01/18 04:21:30;;;;;;;;;;;0.40;99.90;;;;;;7333507;19;111271;-65
2024/01/18 04:23:57;;;;;;;;;;;0.40;99.90;;;;;;7331478;19;109933;-64
2024/01/18 04:26:25;;;;;;;;;;;0.30;99.90;;;;;;7335303;19;109168;-64
2024/01/18 04:28:52;;;;;;;;;;;0.30;99.90;;;;;;7335090;19;108858;-65
2024/01/18 04:31:22;;;;;;;;;;;0.20;99.90;;;;;;7329994;19;109232;-66
2024/01/18 04:33:49;;;;;;;;;;;0.20;99.90;;;;;;7337841;19;110559;-66
2024/01/18 04:36:16;;;;;;;;;;;0.10;99.90;;;;;;7331024;19;108977;-65
2024/01/18 04:38:43;;;;;;;;;;;0.00;99.90;;;;;;7332923;19;114567;-66
2024/01/18 04:41:10;;;;;;;;;;;0.10;99.90;;;;;;7334304;19;108341;-65
2024/01/18 04:43:37;;;;;;;;;;;0.10;99.90;;;;;;7332176;19;109111;-65
2024/01/18 04:46:05;;;;;;;;;;;0.00;99.90;;;;;;7329358;19;109384;-66
2024/01/18 04:48:32;;;;;;;;;;;0.00;99.90;;;;;;7330776;19;109888;-65
2024/01/18 04:50:59;;;;;;;;;;;0.10;99.90;;;;;;7335056;19;108871;-65
2024/01/18 04:53:26;;;;;;;;;;;0.00;99.90;;;;;;7331052;19;109286;-65
2024/01/18 04:55:53;;;;;;;;;;;0.00;99.90;;;;;;7338669;19;109148;-65
2024/01/18 04:58:21;;;;;;;;;;;0.00;99.90;;;;;;7329495;19;111115;-66
2024/01/18 05:00:48;;;;;;;;;;;0.00;99.90;;;;;;7336473;19;112308;-65
2024/01/18 05:03:15;;;;;;;;;;;-0.10;99.90;;;;;;7329383;19;109825;-65
2024/01/18 05:05:43;;;;;;;;;;;-0.20;99.90;;;;;;7329736;19;110263;-64
2024/01/18 05:08:10;;;;;;;;;;;-0.20;99.90;;;;;;7328059;19;108532;-65
2024/01/18 05:10:37;;;;;;;;;;;-0.30;99.90;;;;;;7335286;19;109842;-65
2024/01/18 05:13:04;;;;;;;;;;;-0.40;99.90;;;;;;7335796;19;109229;-65
2024/01/18 05:15:31;;;;;;;;;;;-0.40;99.90;;;;;;7337190;19;108997;-65
2024/01/18 05:17:59;;;;;;;;;;;-0.50;99.90;;;;;;7343587;19;109838;-65
2024/01/18 05:20:28;;;;;;;;;;;-0.50;99.90;;;;;;7333544;19;109641;-65
2024/01/18 05:22:55;;;;;;;;;;;-0.60;99.90;;;;;;7338190;19;109885;-65
2024/01/18 05:25:22;;;;;;;;;;;-0.60;99.90;;;;;;7336082;19;112650;-65
2024/01/18 05:27:49;;;;;;;;;;;-0.70;99.90;;;;;;7337123;19;108792;-65
2024/01/18 05:30:16;;;;;;;;;;;-0.90;99.90;;;;;;7337983;19;108918;-65
2024/01/18 05:32:43;;;;;;;;;;;-0.90;99.90;;;;;;7339123;19;111948;-65
2024/01/18 05:35:10;;;;;;;;;;;-1.00;99.90;;;;;;7338924;19;108415;-65
2024/01/18 05:37:37;;;;;;;;;;;-1.10;99.90;;;;;;7340592;19;109028;-65
2024/01/18 05:40:06;;;;;;;;;;;-1.20;99.90;;;;;;7341947;19;111216;-65
2024/01/18 05:42:33;;;;;;;;;;;-1.30;99.90;;;;;;7333565;19;110542;-67
2024/01/18 05:45:00;;;;;;;;;;;-1.40;99.90;;;;;;7337023;19;109812;-65
2024/01/18 05:47:28;;;;;;;;;;;-1.40;99.90;;;;;;7338957;19;108596;-65
2024/01/18 05:49:55;;;;;;;;;;;-1.50;99.90;;;;;;7340311;19;108970;-65
2024/01/18 05:52:22;;;;;;;;;;;-1.50;99.90;;;;;;7336917;19;109083;-65
2024/01/18 05:54:49;;;;;;;;;;;-1.60;99.90;;;;;;7338517;19;108974;-65
2024/01/18 05:57:16;;;;;;;;;;;-1.60;99.90;;;;;;7337914;19;109264;-65
2024/01/18 05:59:44;;;;;;;;;;;-1.60;99.90;;;;;;7332459;19;111460;-65
2024/01/18 06:02:11;;;;;;;;;;;-1.70;99.90;;;;;;7339080;19;108518;-65
2024/01/18 06:04:38;;;;;;;;;;;-1.80;99.90;;;;;;7331851;19;110132;-65
2024/01/18 06:07:05;;;;;;;;;;;-1.80;99.90;;;;;;7333178;19;110013;-64
2024/01/18 06:09:33;;;;;;;;;;;-1.90;99.90;;;;;;7330909;19;108430;-67
2024/01/18 06:12:00;;;;;;;;;;;-2.00;99.90;;;;;;7334619;19;109564;-64
2024/01/18 06:14:27;;;;;;;;;;;-2.20;99.90;;;;;;7333707;19;109593;-65
2024/01/18 06:16:54;;;;;;;;;;;-2.50;99.90;;;;;;7336248;19;110086;-62
2024/01/18 06:19:21;;;;;;;;;;;-2.80;99.90;;;;;;7330543;19;110454;-65
2024/01/18 06:21:49;;;;;;;;;;;-2.80;99.90;;;;;;7332287;19;108865;-63
2024/01/18 06:24:17;;;;;;;;;;;-2.80;99.90;;;;;;7338681;19;108820;-64
2024/01/18 06:26:44;;;;;;;;;;;-2.80;99.90;;;;;;7332878;19;108391;-65
2024/01/18 06:29:12;;;;;;;;;;;-2.80;99.90;;;;;;7335476;19;108781;-64
2024/01/18 06:31:39;;;;;;;;;;;-2.80;99.90;;;;;;7333887;19;109384;-64
2024/01/18 06:34:08;;;;;;;;;;;-2.90;99.90;;;;;;7335302;19;111576;-66
2024/01/18 06:36:37;;;;;;;;;;;-2.90;99.90;;;;;;7335316;19;109091;-65
2024/01/18 06:39:04;;;;;;;;;;;-3.00;99.90;;;;;;7334145;19;110050;-63
2024/01/18 06:41:31;;;;;;;;;;;-3.10;99.90;;;;;;7335193;19;108531;-65
2024/01/18 06:43:58;;;;;;;;;;;-3.20;99.90;;;;;;7338692;19;108892;-65
2024/01/18 06:46:26;;;;;;;;;;;-3.20;99.90;;;;;;7333827;19;109645;-65
2024/01/18 06:48:53;;;;;;;;;;;-3.10;99.90;;;;;;7335399;19;109193;-63
2024/01/18 06:51:21;;;;;;;;;;;-3.10;99.90;;;;;;7334105;19;110268;-63
2024/01/18 06:53:49;;;;;;;;;;;-3.30;99.90;;;;;;7335662;19;108820;-64
2024/01/18 06:56:16;;;;;;;;;;;-3.50;99.90;;;;;;7335350;19;109686;-63
2024/01/18 06:58:44;;;;;;;;;;;-3.60;99.90;;;;;;7333578;19;109415;-64
2024/01/18 07:01:12;;;;;;;;;;;-3.70;99.90;;;;;;7334750;19;108931;-62
2024/01/18 07:03:42;;;;;;;;;;;-3.70;99.90;;;;;;7332219;19;109595;-64
2024/01/18 07:06:09;;;;;;;;;;;-3.70;99.90;;;;;;7338394;19;110510;-62
2024/01/18 07:08:37;;;;;;;;;;;-3.70;99.90;;;;;;7331917;19;109174;-62
2024/01/18 07:11:04;;;;;;;;;;;-3.80;99.90;;;;;;7330057;19;109680;-63
2024/01/18 07:13:31;;;;;;;;;;;-3.90;99.90;;;;;;7331750;19;110706;-64
2024/01/18 07:15:58;;;;;;;;;;;-3.90;99.90;;;;;;7331722;19;109543;-62
2024/01/18 07:18:26;;;;;;;;;;;-3.90;99.90;;;;;;7331680;19;109254;-64
2024/01/18 07:20:54;;;;;;;;;;;-4.00;99.90;;;;;;7330868;19;109226;-61
2024/01/18 07:23:21;;;;;;;;;;;-4.10;99.90;;;;;;7332191;19;110928;-65
2024/01/18 07:25:48;;;;;;;;;;;-4.10;99.90;;;;;;7333340;19;110705;-63
2024/01/18 07:28:15;;;;;;;;;;;-4.20;99.90;;;;;;7336668;19;108490;-63
2024/01/18 07:30:42;;;;;;;;;;;-4.20;99.90;;;;;;7325723;19;110158;-62
2024/01/18 07:33:09;;;;;;;;;;;-4.20;99.90;;;;;;7325692;19;108483;-61
2024/01/18 07:35:37;;;;;;;;;;;-4.10;99.90;;;;;;7331815;19;111451;-61
2024/01/18 07:38:07;;;;;;;;;;;-4.10;99.90;;;;;;7330795;19;109806;-60
2024/01/18 07:40:34;;;;;;;;;;;-4.00;99.90;;;;;;7328768;19;112008;-63
2024/01/18 07:43:01;;;;;;;;;;;-3.90;99.90;;;;;;7329293;19;110118;-63
2024/01/18 07:45:28;;;;;;;;;;;-3.90;99.90;;;;;;7331372;19;114446;-60
2024/01/18 07:47:55;;;;;;;;;;;-3.90;99.90;;;;;;7330973;19;108329;-63
2024/01/18 07:50:22;;;;;;;;;;;-4.10;99.90;;;;;;7339303;19;109946;-62
2024/01/18 07:53:02;;;;;;;;;;;-4.10;99.90;;;;;;7331135;19;108515;-63
2024/01/18 07:55:29;;;;;;;;;;;-4.10;99.90;;;;;;7332968;19;109290;-63
2024/01/18 07:57:56;;;;;;;;;;;-4.20;99.90;;;;;;7332788;19;110282;-62
2024/01/18 08:00:24;;;;;;;;;;;-4.20;99.90;;;;;;7328608;19;110592;-63
2024/01/18 08:02:51;;;;;;;;;;;-4.30;99.90;;;;;;7331514;19;108535;-61
2024/01/18 08:05:18;;;;;;;;;;;-4.30;99.90;;;;;;7331160;19;109552;-64
2024/01/18 08:07:45;;;;;;;;;;;-4.40;99.90;;;;;;7331118;19;109043;-65
2024/01/18 08:10:12;;;;;;;;;;;-4.70;99.90;;;;;;7331015;19;109017;-63
2024/01/18 08:12:42;;;;;;;;;;;-5.00;99.90;;;;;;7336650;19;109822;-61
2024/01/18 08:15:11;;;;;;;;;;;-5.00;99.90;;;;;;7329169;19;109784;-62
2024/01/18 08:17:38;;;;;;;;;;;-4.90;99.90;;;;;;7330925;19;110293;-63
2024/01/18 08:20:12;;;;;;;;;;;-4.80;99.90;;;;;;7329825;19;108352;-62
2024/01/18 08:22:41;;;;;;;;;;;-4.70;99.90;;;;;;7333417;19;110756;-62
2024/01/18 08:25:10;;;;;;;;;;;-4.50;99.90;;;;;;7328191;19;110904;-63
2024/01/18 08:27:43;;;;;;;;;;;-4.40;99.90;;;;;;7328516;19;109997;-62
2024/01/18 08:30:10;;;;;;;;;;;-4.20;99.90;;;;;;7329736;19;109559;-63
2024/01/18 08:32:37;;;;;;;;;;;-4.10;99.90;;;;;;7327113;19;109421;-63
2024/01/18 08:35:07;;;;;;;;;;;-4.00;99.90;;;;;;7336659;19;109423;-62
2024/01/18 08:37:37;;;;;;;;;;;-3.90;99.90;;;;;;7329677;19;109663;-62
2024/01/18 08:40:06;;;;;;;;;;;-3.80;99.90;;;;;;7332247;19;109032;-62
2024/01/18 08:42:33;;;;;;;;;;;-3.80;99.90;;;;;;7329497;19;109601;-64
2024/01/18 08:45:00;;;;;;;;;;;-3.70;99.90;;;;;;7335864;19;109178;-62
2024/01/18 08:47:27;;;;;;;;;;;-3.70;99.90;;;;;;7339603;19;108878;-62
2024/01/18 08:49:54;;;;;;;;;;;-3.70;99.90;;;;;;7341249;19;109221;-62
2024/01/18 08:52:22;;;;;;;;;;;-3.70;99.90;;;;;;7339671;19;109361;-63
2024/01/18 08:54:51;;;;;;;;;;;-3.70;99.90;;;;;;7343187;19;108461;-62
2024/01/18 08:57:21;;;;;;;;;;;-3.70;99.90;;;;;;7336788;19;109569;-63
2024/01/18 08:59:49;;;;;;;;;;;-3.70;99.90;;;;;;7338984;19;108900;-62
2024/01/18 09:02:17;;;;;;;;;;;-3.70;99.90;;;;;;7337448;19;109131;-63
2024/01/18 09:04:50;;;;;;;;;;;-3.60;99.90;;;;;;7336125;19;110302;-63
2024/01/18 09:07:18;;;;;;;;;;;-3.70;99.90;;;;;;7336306;19;108917;-63
2024/01/18 09:09:46;;;;;;;;;;;-3.60;99.90;;;;;;7335333;19;111314;-63
2024/01/18 09:12:13;;;;;;;;;;;-3.50;99.90;;;;;;7336175;19;109328;-64
2024/01/18 09:14:42;;;;;;;;;;;-3.40;99.90;;;;;;7338095;19;110751;-67
2024/01/18 09:17:11;;;;;;;;;;;-3.30;99.90;;;;;;7341398;19;108889;-63
2024/01/18 09:19:39;;;;;;;;;;;-3.20;99.90;;;;;;7338948;19;109642;-63
2024/01/18 09:22:06;;;;;;;;;;;-3.10;99.90;;;;;;7338617;19;108990;-63
2024/01/18 09:24:34;;;;;;;;;;;-3.00;99.90;;;;;;7337204;19;109179;-63
2024/01/18 09:27:01;;;;;;;;;;;-2.90;99.90;;;;;;7338028;19;108554;-63
2024/01/18 09:29:28;;;;;;;;;;;-2.80;99.90;;;;;;7337852;19;110743;-64
2024/01/18 09:31:56;;;;;;;;;;;-2.70;99.90;;;;;;7337879;19;109283;-66
2024/01/18 09:34:24;;;;;;;;;;;-2.60;99.90;;;;;;7336068;19;110216;-64
2024/01/18 09:36:51;;;;;;;;;;;-2.50;99.90;;;;;;7337903;19;109108;-65
2024/01/18 09:39:18;;;;;;;;;;;-2.40;99.90;;;;;;7339882;19;110679;-63
2024/01/18 09:41:58;;;;;;;;;;;-2.40;99.90;;;;;;7337561;19;109094;-63
2024/01/18 09:44:26;;;;;;;;;;;-2.30;99.90;;;;;;7336294;19;111137;-65
2024/01/18 09:46:54;;;;;;;;;;;-2.10;99.90;;;;;;7337078;19;108820;-63
2024/01/18 09:49:21;;;;;;;;;;;-2.10;99.90;;;;;;7335424;19;109582;-63
2024/01/18 09:51:49;;;;;;;;;;;-2.00;99.90;;;;;;7338015;19;109417;-61
2024/01/18 09:54:17;;;;;;;;;;;-2.00;99.90;;;;;;7336007;19;109720;-63
2024/01/18 09:56:45;;;;;;;;;;;-1.90;99.90;;;;;;7337396;19;109256;-67
2024/01/18 09:59:15;;;;;;;;;;;-1.70;99.90;;;;;;7333839;19;110121;-64
2024/01/18 10:01:43;;;;;;;;;;;-1.70;99.90;;;;;;7340644;19;108461;-64
2024/01/18 10:04:12;;;;;;;;;;;-1.60;99.90;;;;;;7335188;19;111036;-63
2024/01/18 10:06:39;;;;;;;;;;;-1.50;99.90;;;;;;7336712;19;108637;-63
2024/01/18 10:09:14;;;;;;;;;;;-1.40;99.90;;;;;;7335876;19;109602;-63
2024/01/18 10:11:44;;;;;;;;;;;-1.30;99.90;;;;;;7333924;19;109174;-63
2024/01/18 10:14:11;;;;;;;;;;;-1.10;99.90;;;;;;7337200;19;109929;-62
2024/01/18 10:16:40;;;;;;;;;;;-1.00;99.90;;;;;;7333009;19;108824;-63
2024/01/18 10:19:14;;;;;;;;;;;-0.90;99.90;;;;;;7336325;19;109306;-64
2024/01/18 10:21:46;;;;;;;;;;;-0.80;99.90;;;;;;7335400;19;108905;-63
2024/01/18 10:24:14;;;;;;;;;;;-0.70;99.90;;;;;;7337018;19;109075;-63
2024/01/18 10:26:42;;;;;;;;;;;-0.60;99.90;;;;;;7334731;19;108762;-60
2024/01/18 10:29:12;;;;;;;;;;;-0.50;99.90;;;;;;7334939;19;109302;-64
2024/01/18 10:31:41;;;;;;;;;;;-0.40;99.90;;;;;;7333704;19;110691;-63
2024/01/18 10:34:11;;;;;;;;;;;-0.30;99.90;;;;;;7331089;19;109235;-63
2024/01/18 10:36:38;;;;;;;;;;;-0.10;99.90;;;;;;7334498;19;108761;-63
2024/01/18 10:39:16;;;;;;;;;;;0.00;99.90;;;;;;7333107;19;109190;-64
2024/01/18 10:41:46;;;;;;;;;;;0.10;99.90;;;;;;7335011;19;109335;-63
2024/01/18 10:44:20;;;;;;;;;;;0.20;99.90;;;;;;7336184;19;109243;-63
2024/01/18 10:46:48;;;;;;;;;;;0.30;99.90;;;;;;7335650;19;108485;-63
2024/01/18 10:49:15;;;;;;;;;;;0.40;99.90;;;;;;7335774;19;108942;-64
2024/01/18 10:51:42;;;;;;;;;;;0.50;99.90;;;;;;7334054;19;109102;-64
2024/01/18 10:54:10;;;;;;;;;;;0.60;99.90;;;;;;7334345;19;108858;-64
2024/01/18 10:56:55;;;;;;;;;;;0.80;99.90;;;;;;7333022;19;108650;-65
2024/01/18 10:59:23;;;;;;;;;;;0.90;99.90;;;;;;7332312;19;111824;-64
2024/01/18 11:01:53;;;;;;;;;;;1.10;99.90;;;;;;7331096;19;111325;-64
2024/01/18 11:04:20;;;;;;;;;;;1.30;99.90;;;;;;7332684;19;110411;-62
2024/01/18 11:06:47;;;;;;;;;;;1.40;99.90;;;;;;7335450;19;110048;-63
2024/01/18 11:09:16;;;;;;;;;;;1.60;99.90;;;;;;7332168;19;108948;-65
2024/01/18 11:11:43;;;;;;;;;;;1.70;99.90;;;;;;7330759;19;109566;-64
2024/01/18 11:14:10;;;;;;;;;;;1.90;99.90;;;;;;7335186;19;108743;-64
2024/01/18 11:16:38;;;;;;;;;;;2.00;99.90;;;;;;7333917;19;111890;-64
2024/01/18 11:19:05;;;;;;;;;;;2.10;99.90;;;;;;7333115;19;110041;-65
2024/01/18 11:21:39;;;;;;;;;;;2.30;99.90;;;;;;7333062;19;108928;-62
2024/01/18 11:24:10;;;;;;;;;;;2.50;99.90;;;;;;7335756;19;109774;-64
2024/01/18 11:26:38;;;;;;;;;;;2.70;99.90;;;;;;7332206;19;109803;-65
2024/01/18 11:29:15;;;;;;;;;;;2.80;99.90;;;;;;7340968;19;109185;-69
2024/01/18 11:31:51;;;;;;;;;;;3.00;99.90;;;;;;7334510;19;109735;-63
2024/01/18 11:34:28;;;;;;;;;;;3.10;99.90;;;;;;7333145;19;111663;-63
2024/01/18 11:37:12;;;;;;;;;;;3.30;99.90;;;;;;7334990;19;108740;-63
2024/01/18 11:39:49;;;;;;;;;;;3.50;99.90;;;;;;7330149;19;109509;-63
2024/01/18 11:42:20;;;;;;;;;;;3.60;99.90;;;;;;7334058;19;109037;-62
2024/01/18 11:44:54;;;;;;;;;;;3.70;99.90;;;;;;7335043;19;114160;-64
2024/01/18 11:47:22;;;;;;;;;;;3.90;99.90;;;;;;7332591;19;111724;-66
2024/01/18 11:49:50;;;;;;;;;;;4.00;99.90;;;;;;7334225;19;108688;-66
2024/01/18 11:52:19;;;;;;;;;;;4.10;99.90;;;;;;7338075;19;110516;-62
2024/01/18 11:54:47;;;;;;;;;;;4.30;99.90;;;;;;7333310;19;108825;-63
2024/01/18 11:57:16;;;;;;;;;;;4.40;99.90;;;;;;7334325;19;109186;-63
2024/01/18 11:59:52;;;;;;;;;;;4.50;99.90;;;;;;7333949;19;110561;-63
2024/01/18 12:02:21;;;;;;;;;;;4.60;99.90;;;;;;7333895;19;108995;-65
2024/01/18 12:04:48;;;;;;;;;;;4.70;99.90;;;;;;7331997;19;112011;-63
2024/01/18 12:07:19;;;;;;;;;;;4.90;99.90;;;;;;7332250;19;110561;-66
2024/01/18 12:09:47;;;;;;;;;;;5.00;99.90;;;;;;7328845;19;110094;-63
2024/01/18 12:12:15;;;;;;;;;;;5.10;99.90;;;;;;7333276;19;108286;-64
2024/01/18 12:14:43;;;;;;;;;;;5.20;99.90;;;;;;7334642;19;109075;-64
2024/01/18 12:17:11;;;;;;;;;;;5.30;99.90;;;;;;7331458;19;109307;-64
2024/01/18 12:19:40;;;;;;;;;;;5.40;99.90;;;;;;7334147;19;112451;-64
2024/01/18 12:22:11;;;;;;;;;;;5.40;99.90;;;;;;7334523;19;108369;-64
2024/01/18 12:24:39;;;;;;;;;;;5.60;99.90;;;;;;7328689;19;109155;-64
2024/01/18 12:27:09;;;;;;;;;;;5.70;99.90;;;;;;7332195;19;109354;-64
2024/01/18 12:29:38;;;;;;;;;;;5.80;99.90;;;;;;7332742;19;108867;-64
2024/01/18 12:32:06;;;;;;;;;;;5.90;99.90;;;;;;7332278;19;110060;-65
2024/01/18 12:34:34;;;;;;;;;;;6.00;99.90;;;;;;7329465;19;110325;-64
2024/01/18 12:37:02;;;;;;;;;;;6.10;99.90;;;;;;7336850;19;108575;-64
2024/01/18 12:39:30;;;;;;;;;;;6.10;99.90;;;;;;7332115;19;110479;-65
2024/01/18 12:41:57;;;;;;;;;;;6.20;99.90;;;;;;7334998;19;108498;-64
2024/01/18 12:44:25;;;;;;;;;;;6.30;99.90;;;;;;7331009;19;109384;-65
2024/01/18 12:46:54;;;;;;;;;;;6.40;99.90;;;;;;7333508;19;111062;-67
2024/01/18 12:49:23;;;;;;;;;;;6.50;99.90;;;;;;7330446;19;108499;-65
2024/01/18 12:51:54;;;;;;;;;;;6.60;99.90;;;;;;7332789;19;109105;-65
2024/01/18 12:54:22;;;;;;;;;;;6.70;99.90;;;;;;7331226;19;111526;-65
2024/01/18 12:56:55;;;;;;;;;;;6.80;99.90;;;;;;7337646;19;108832;-65
2024/01/18 12:59:22;;;;;;;;;;;6.90;99.90;;;;;;7329390;19;109734;-65
2024/01/18 13:01:51;;;;;;;;;;;7.00;99.90;;;;;;7332420;19;108649;-65
2024/01/18 13:04:22;;;;;;;;;;;7.00;99.90;;;;;;7331666;19;108996;-66
2024/01/18 13:06:50;;;;;;;;;;;7.10;99.90;;;;;;7330238;19;110577;-66
2024/01/18 13:09:28;;;;;;;;;;;7.20;99.90;;;;;;7333446;19;108653;-66
2024/01/18 13:11:55;;;;;;;;;;;7.30;99.90;;;;;;7331297;19;109586;-65
2024/01/18 13:14:23;;;;;;;;;;;7.40;99.90;;;;;;7332262;19;109109;-66
2024/01/18 13:16:52;;;;;;;;;;;7.40;99.90;;;;;;7331575;19;108961;-66
2024/01/18 13:19:20;;;;;;;;;;;7.40;99.90;;;;;;7335098;19;108433;-66
2024/01/18 13:21:47;;;;;;;;;;;7.50;99.90;;;;;;7331598;19;108896;-67
2024/01/18 13:24:15;;;;;;;;;;;7.50;99.90;;;;;;7328829;19;109293;-66
2024/01/18 13:26:42;;;;;;;;;;;7.50;99.90;;;;;;7329841;19;110053;-65
2024/01/18 13:29:10;;;;;;;;;;;7.60;99.90;;;;;;7331006;19;109049;-65
2024/01/18 13:31:38;;;;;;;;;;;7.60;99.90;;;;;;7337534;19;111594;-67
2024/01/18 13:34:05;;;;;;;;;;;7.60;99.90;;;;;;7335501;19;109097;-65
2024/01/18 13:36:33;;;;;;;;;;;7.50;99.90;;;;;;7338827;19;109372;-65
2024/01/18 13:39:01;;;;;;;;;;;7.50;99.90;;;;;;7339158;19;108592;-66
2024/01/18 13:41:28;;;;;;;;;;;7.60;99.90;;;;;;7343185;19;110241;-67
2024/01/18 13:43:55;;;;;;;;;;;7.60;99.90;;;;;;7340718;19;109392;-65
2024/01/18 13:46:22;;;;;;;;;;;7.60;99.90;;;;;;7335930;19;110878;-71
2024/01/18 13:48:49;;;;;;;;;;;7.60;99.90;;;;;;7337679;19;108544;-73
2024/01/18 13:51:17;;;;;;;;;;;7.50;99.90;;;;;;7336629;19;109206;-70
2024/01/18 13:53:50;;;;;;;;;;;7.50;99.90;;;;;;7336975;19;108909;-68
2024/01/18 13:56:19;;;;;;;;;;;7.40;99.90;;;;;;7335496;19;108510;-77
2024/01/18 13:58:47;;;;;;;;;;;7.40;99.90;;;;;;7338019;19;111952;-70
2024/01/18 14:01:17;;;;;;;;;;;7.20;99.90;;;;;;7332871;19;110246;-68
2024/01/18 14:03:46;;;;;;;;;;;7.00;99.90;;;;;;7343476;19;109256;-68
2024/01/18 14:06:16;;;;;;;;;;;6.90;99.90;;;;;;7337756;19;110532;-70
2024/01/18 14:08:44;;;;;;;;;;;6.80;99.90;;;;;;7335737;19;108449;-64
2024/01/18 14:11:15;;;;;;;;;;;6.80;99.90;;;;;;7335229;19;108333;-66
2024/01/18 14:13:45;;;;;;;;;;;6.70;99.90;;;;;;7337645;19;110125;-64
2024/01/18 14:16:15;;;;;;;;;;;6.60;99.90;;;;;;7337683;19;109281;-67